sensor_id;sensor_type;location;lat;lon;timestamp;P1;durP1;ratioP1;P2;durP2;ratioP2
71806;SDS011;59655;42.590;23.364;2022-11-15T00:01:21;26.65;;;15.55;;
71806;SDS011;59655;42.590;23.364;2022-11-15T00:03:46;25.65;;;13.45;;
71806;SDS011;59655;42.590;23.364;2022-11-15T00:06:15;21.20;;;10.38;;
71806;SDS011;59655;42.590;23.364;2022-11-15T00:08:40;19.45;;;10.27;;
71806;SDS011;59655;42.590;23.364;2022-11-15T00:11:06;16.83;;;8.77;;
71806;SDS011;59655;42.590;23.364;2022-11-15T00:13:31;12.25;;;7.10;;
71806;SDS011;59655;42.590;23.364;2022-11-15T00:15:57;11.88;;;6.68;;
71806;SDS011;59655;42.590;23.364;2022-11-15T00:18:23;13.07;;;6.95;;
71806;SDS011;59655;42.590;23.364;2022-11-15T00:20:49;12.48;;;6.88;;
71806;SDS011;59655;42.590;23.364;2022-11-15T00:23:14;18.90;;;9.48;;
71806;SDS011;59655;42.590;23.364;2022-11-15T00:25:39;22.10;;;10.88;;
71806;SDS011;59655;42.590;23.364;2022-11-15T00:28:06;15.68;;;7.78;;
71806;SDS011;59655;42.590;23.364;2022-11-15T00:30:31;13.80;;;7.05;;
71806;SDS011;59655;42.590;23.364;2022-11-15T00:33:00;11.68;;;6.47;;
71806;SDS011;59655;42.590;23.364;2022-11-15T00:35:27;12.38;;;6.43;;
71806;SDS011;59655;42.590;23.364;2022-11-15T00:37:52;11.65;;;6.05;;
71806;SDS011;59655;42.590;23.364;2022-11-15T00:40:17;11.85;;;6.00;;
71806;SDS011;59655;42.590;23.364;2022-11-15T00:42:43;11.85;;;6.07;;
71806;SDS011;59655;42.590;23.364;2022-11-15T00:45:08;17.23;;;8.52;;
71806;SDS011;59655;42.590;23.364;2022-11-15T00:47:34;17.30;;;10.35;;
71806;SDS011;59655;42.590;23.364;2022-11-15T00:49:59;13.90;;;6.43;;
71806;SDS011;59655;42.590;23.364;2022-11-15T00:52:25;11.05;;;6.25;;
71806;SDS011;59655;42.590;23.364;2022-11-15T00:54:50;10.02;;;5.70;;
71806;SDS011;59655;42.590;23.364;2022-11-15T00:57:16;10.05;;;5.32;;
71806;SDS011;59655;42.590;23.364;2022-11-15T00:59:41;10.18;;;5.80;;
71806;SDS011;59655;42.590;23.364;2022-11-15T01:02:06;12.45;;;6.85;;
71806;SDS011;59655;42.590;23.364;2022-11-15T01:04:32;14.38;;;6.88;;
71806;SDS011;59655;42.590;23.364;2022-11-15T01:06:57;12.68;;;6.65;;
71806;SDS011;59655;42.590;23.364;2022-11-15T01:09:23;12.00;;;6.53;;
71806;SDS011;59655;42.590;23.364;2022-11-15T01:11:48;14.55;;;8.18;;
71806;SDS011;59655;42.590;23.364;2022-11-15T01:14:14;17.38;;;9.80;;
71806;SDS011;59655;42.590;23.364;2022-11-15T01:16:39;20.48;;;9.90;;
71806;SDS011;59655;42.590;23.364;2022-11-15T01:19:04;15.57;;;7.50;;
71806;SDS011;59655;42.590;23.364;2022-11-15T01:21:30;14.02;;;6.93;;
71806;SDS011;59655;42.590;23.364;2022-11-15T01:23:55;14.73;;;6.72;;
71806;SDS011;59655;42.590;23.364;2022-11-15T01:26:22;10.07;;;5.20;;
71806;SDS011;59655;42.590;23.364;2022-11-15T01:28:48;11.90;;;6.30;;
71806;SDS011;59655;42.590;23.364;2022-11-15T01:31:15;12.18;;;6.57;;
71806;SDS011;59655;42.590;23.364;2022-11-15T01:33:41;11.55;;;5.68;;
71806;SDS011;59655;42.590;23.364;2022-11-15T01:36:09;10.57;;;5.45;;
71806;SDS011;59655;42.590;23.364;2022-11-15T01:38:36;10.85;;;5.30;;
71806;SDS011;59655;42.590;23.364;2022-11-15T01:41:02;10.40;;;5.28;;
71806;SDS011;59655;42.590;23.364;2022-11-15T01:43:29;10.55;;;5.75;;
71806;SDS011;59655;42.590;23.364;2022-11-15T01:46:08;12.77;;;7.47;;
71806;SDS011;59655;42.590;23.364;2022-11-15T01:48:42;13.57;;;8.02;;
71806;SDS011;59655;42.590;23.364;2022-11-15T01:51:08;13.35;;;6.70;;
71806;SDS011;59655;42.590;23.364;2022-11-15T01:53:36;12.20;;;5.90;;
71806;SDS011;59655;42.590;23.364;2022-11-15T01:56:06;10.93;;;5.05;;
71806;SDS011;59655;42.590;23.364;2022-11-15T01:58:34;10.82;;;5.20;;
71806;SDS011;59655;42.590;23.364;2022-11-15T02:01:01;13.48;;;7.38;;
71806;SDS011;59655;42.590;23.364;2022-11-15T02:03:29;16.38;;;7.65;;
71806;SDS011;59655;42.590;23.364;2022-11-15T02:06:00;20.02;;;8.45;;
71806;SDS011;59655;42.590;23.364;2022-11-15T02:08:28;14.35;;;6.78;;
71806;SDS011;59655;42.590;23.364;2022-11-15T02:10:54;13.18;;;6.65;;
71806;SDS011;59655;42.590;23.364;2022-11-15T02:13:19;13.63;;;6.32;;
71806;SDS011;59655;42.590;23.364;2022-11-15T02:16:04;11.57;;;6.05;;
71806;SDS011;59655;42.590;23.364;2022-11-15T02:18:46;12.93;;;6.43;;
71806;SDS011;59655;42.590;23.364;2022-11-15T02:21:19;13.18;;;5.47;;
71806;SDS011;59655;42.590;23.364;2022-11-15T02:32:45;8.35;;;4.40;;
71806;SDS011;59655;42.590;23.364;2022-11-15T02:35:30;8.02;;;4.22;;
71806;SDS011;59655;42.590;23.364;2022-11-15T02:43:41;16.63;;;8.15;;
71806;SDS011;59655;42.590;23.364;2022-11-15T02:46:24;18.52;;;8.32;;
71806;SDS011;59655;42.590;23.364;2022-11-15T02:49:11;13.13;;;7.00;;
71806;SDS011;59655;42.590;23.364;2022-11-15T02:51:38;12.35;;;6.50;;
71806;SDS011;59655;42.590;23.364;2022-11-15T02:54:05;10.82;;;5.70;;
71806;SDS011;59655;42.590;23.364;2022-11-15T02:56:31;7.78;;;4.35;;
71806;SDS011;59655;42.590;23.364;2022-11-15T02:59:00;9.93;;;4.80;;
71806;SDS011;59655;42.590;23.364;2022-11-15T03:04:18;12.25;;;5.53;;
71806;SDS011;59655;42.590;23.364;2022-11-15T03:06:55;10.68;;;5.18;;
71806;SDS011;59655;42.590;23.364;2022-11-15T03:09:42;10.52;;;4.82;;
71806;SDS011;59655;42.590;23.364;2022-11-15T03:12:30;8.85;;;5.13;;
71806;SDS011;59655;42.590;23.364;2022-11-15T03:15:01;23.65;;;8.32;;
71806;SDS011;59655;42.590;23.364;2022-11-15T03:17:38;15.52;;;7.10;;
71806;SDS011;59655;42.590;23.364;2022-11-15T03:20:11;12.95;;;5.93;;
71806;SDS011;59655;42.590;23.364;2022-11-15T03:22:40;11.93;;;6.10;;
71806;SDS011;59655;42.590;23.364;2022-11-15T03:25:09;16.90;;;7.50;;
71806;SDS011;59655;42.590;23.364;2022-11-15T03:27:39;16.05;;;7.95;;
71806;SDS011;59655;42.590;23.364;2022-11-15T03:30:09;17.00;;;8.23;;
71806;SDS011;59655;42.590;23.364;2022-11-15T03:35:35;11.25;;;5.43;;
71806;SDS011;59655;42.590;23.364;2022-11-15T03:40:47;17.08;;;8.77;;
71806;SDS011;59655;42.590;23.364;2022-11-15T03:43:28;14.85;;;7.20;;
71806;SDS011;59655;42.590;23.364;2022-11-15T03:46:05;11.90;;;6.40;;
71806;SDS011;59655;42.590;23.364;2022-11-15T03:48:37;11.38;;;5.43;;
71806;SDS011;59655;42.590;23.364;2022-11-15T03:51:06;10.15;;;5.38;;
71806;SDS011;59655;42.590;23.364;2022-11-15T03:53:32;9.07;;;4.60;;
71806;SDS011;59655;42.590;23.364;2022-11-15T03:55:57;11.15;;;6.10;;
71806;SDS011;59655;42.590;23.364;2022-11-15T03:58:23;16.88;;;7.47;;
71806;SDS011;59655;42.590;23.364;2022-11-15T04:00:48;13.13;;;7.25;;
71806;SDS011;59655;42.590;23.364;2022-11-15T04:03:14;17.63;;;7.82;;
71806;SDS011;59655;42.590;23.364;2022-11-15T04:05:39;16.23;;;8.20;;
71806;SDS011;59655;42.590;23.364;2022-11-15T04:08:04;17.00;;;8.10;;
71806;SDS011;59655;42.590;23.364;2022-11-15T04:10:30;18.38;;;8.80;;
71806;SDS011;59655;42.590;23.364;2022-11-15T04:12:55;17.63;;;8.85;;
71806;SDS011;59655;42.590;23.364;2022-11-15T04:15:21;18.10;;;8.32;;
71806;SDS011;59655;42.590;23.364;2022-11-15T04:20:18;14.20;;;6.68;;
71806;SDS011;59655;42.590;23.364;2022-11-15T04:23:06;17.75;;;8.93;;
71806;SDS011;59655;42.590;23.364;2022-11-15T04:25:53;17.55;;;8.98;;
71806;SDS011;59655;42.590;23.364;2022-11-15T04:28:20;16.30;;;11.02;;
71806;SDS011;59655;42.590;23.364;2022-11-15T04:30:46;17.15;;;12.05;;
71806;SDS011;59655;42.590;23.364;2022-11-15T04:33:11;17.02;;;11.13;;
71806;SDS011;59655;42.590;23.364;2022-11-15T04:35:36;14.88;;;9.35;;
71806;SDS011;59655;42.590;23.364;2022-11-15T04:38:02;11.75;;;8.88;;
71806;SDS011;59655;42.590;23.364;2022-11-15T04:40:29;15.27;;;8.75;;
71806;SDS011;59655;42.590;23.364;2022-11-15T04:42:55;14.88;;;7.07;;
71806;SDS011;59655;42.590;23.364;2022-11-15T04:45:20;11.50;;;7.30;;
71806;SDS011;59655;42.590;23.364;2022-11-15T04:47:46;14.27;;;8.00;;
71806;SDS011;59655;42.590;23.364;2022-11-15T04:50:12;14.95;;;7.22;;
71806;SDS011;59655;42.590;23.364;2022-11-15T04:52:40;12.15;;;6.35;;
71806;SDS011;59655;42.590;23.364;2022-11-15T04:55:14;16.50;;;6.93;;
71806;SDS011;59655;42.590;23.364;2022-11-15T04:57:39;12.55;;;5.60;;
71806;SDS011;59655;42.590;23.364;2022-11-15T05:00:05;11.52;;;5.90;;
71806;SDS011;59655;42.590;23.364;2022-11-15T05:02:36;11.95;;;7.15;;
71806;SDS011;59655;42.590;23.364;2022-11-15T05:05:21;26.48;;;8.68;;
71806;SDS011;59655;42.590;23.364;2022-11-15T05:07:46;27.10;;;8.90;;
71806;SDS011;59655;42.590;23.364;2022-11-15T05:10:11;19.30;;;8.30;;
71806;SDS011;59655;42.590;23.364;2022-11-15T05:12:37;16.52;;;7.60;;
71806;SDS011;59655;42.590;23.364;2022-11-15T05:15:03;19.60;;;8.07;;
71806;SDS011;59655;42.590;23.364;2022-11-15T05:17:29;20.63;;;8.77;;
71806;SDS011;59655;42.590;23.364;2022-11-15T05:19:54;18.10;;;9.60;;
71806;SDS011;59655;42.590;23.364;2022-11-15T05:22:20;22.52;;;9.85;;
71806;SDS011;59655;42.590;23.364;2022-11-15T05:24:45;23.67;;;9.30;;
71806;SDS011;59655;42.590;23.364;2022-11-15T05:27:11;28.63;;;12.10;;
71806;SDS011;59655;42.590;23.364;2022-11-15T05:29:36;26.88;;;10.57;;
71806;SDS011;59655;42.590;23.364;2022-11-15T05:32:03;23.52;;;9.48;;
71806;SDS011;59655;42.590;23.364;2022-11-15T05:34:30;25.35;;;10.00;;
71806;SDS011;59655;42.590;23.364;2022-11-15T05:36:55;29.85;;;9.25;;
71806;SDS011;59655;42.590;23.364;2022-11-15T05:39:21;25.88;;;11.07;;
71806;SDS011;59655;42.590;23.364;2022-11-15T05:41:48;23.90;;;11.63;;
71806;SDS011;59655;42.590;23.364;2022-11-15T05:44:18;30.50;;;10.85;;
71806;SDS011;59655;42.590;23.364;2022-11-15T05:46:46;28.10;;;15.50;;
71806;SDS011;59655;42.590;23.364;2022-11-15T05:49:13;31.67;;;11.32;;
71806;SDS011;59655;42.590;23.364;2022-11-15T05:51:42;23.33;;;9.07;;
71806;SDS011;59655;42.590;23.364;2022-11-15T05:54:11;20.70;;;9.20;;
71806;SDS011;59655;42.590;23.364;2022-11-15T05:56:36;29.95;;;11.15;;
71806;SDS011;59655;42.590;23.364;2022-11-15T05:59:03;25.63;;;10.82;;
71806;SDS011;59655;42.590;23.364;2022-11-15T06:01:29;29.70;;;11.75;;
71806;SDS011;59655;42.590;23.364;2022-11-15T06:03:54;31.30;;;11.60;;
71806;SDS011;59655;42.590;23.364;2022-11-15T06:06:20;31.00;;;13.50;;
71806;SDS011;59655;42.590;23.364;2022-11-15T06:08:45;28.63;;;11.00;;
71806;SDS011;59655;42.590;23.364;2022-11-15T06:11:10;29.88;;;13.10;;
71806;SDS011;59655;42.590;23.364;2022-11-15T06:13:36;23.63;;;10.48;;
71806;SDS011;59655;42.590;23.364;2022-11-15T06:16:01;25.20;;;11.05;;
71806;SDS011;59655;42.590;23.364;2022-11-15T06:18:27;26.73;;;10.07;;
71806;SDS011;59655;42.590;23.364;2022-11-15T06:20:52;24.08;;;10.35;;
71806;SDS011;59655;42.590;23.364;2022-11-15T06:23:18;28.83;;;9.90;;
71806;SDS011;59655;42.590;23.364;2022-11-15T06:25:43;20.33;;;9.77;;
71806;SDS011;59655;42.590;23.364;2022-11-15T06:28:09;20.88;;;9.63;;
71806;SDS011;59655;42.590;23.364;2022-11-15T06:30:34;19.45;;;9.82;;
71806;SDS011;59655;42.590;23.364;2022-11-15T06:33:03;22.38;;;10.52;;
71806;SDS011;59655;42.590;23.364;2022-11-15T06:35:30;25.25;;;11.80;;
71806;SDS011;59655;42.590;23.364;2022-11-15T06:38:08;24.30;;;12.57;;
71806;SDS011;59655;42.590;23.364;2022-11-15T06:40:35;31.85;;;12.45;;
71806;SDS011;59655;42.590;23.364;2022-11-15T06:43:02;28.63;;;12.77;;
71806;SDS011;59655;42.590;23.364;2022-11-15T06:45:28;29.27;;;13.68;;
71806;SDS011;59655;42.590;23.364;2022-11-15T06:47:53;30.65;;;13.15;;
71806;SDS011;59655;42.590;23.364;2022-11-15T06:50:19;24.58;;;12.75;;
71806;SDS011;59655;42.590;23.364;2022-11-15T06:52:44;23.42;;;12.05;;
71806;SDS011;59655;42.590;23.364;2022-11-15T06:55:09;27.83;;;11.95;;
71806;SDS011;59655;42.590;23.364;2022-11-15T06:57:35;23.50;;;12.30;;
71806;SDS011;59655;42.590;23.364;2022-11-15T07:00:03;26.92;;;13.02;;
71806;SDS011;59655;42.590;23.364;2022-11-15T07:02:29;24.88;;;12.32;;
71806;SDS011;59655;42.590;23.364;2022-11-15T07:04:54;24.38;;;12.65;;
71806;SDS011;59655;42.590;23.364;2022-11-15T07:07:20;24.48;;;12.57;;
71806;SDS011;59655;42.590;23.364;2022-11-15T07:09:45;26.98;;;13.15;;
71806;SDS011;59655;42.590;23.364;2022-11-15T07:12:10;20.88;;;10.95;;
71806;SDS011;59655;42.590;23.364;2022-11-15T07:14:36;22.67;;;10.75;;
71806;SDS011;59655;42.590;23.364;2022-11-15T07:17:03;18.45;;;9.65;;
71806;SDS011;59655;42.590;23.364;2022-11-15T07:19:29;19.20;;;9.65;;
71806;SDS011;59655;42.590;23.364;2022-11-15T07:21:55;21.40;;;10.32;;
71806;SDS011;59655;42.590;23.364;2022-11-15T07:24:20;24.35;;;10.07;;
71806;SDS011;59655;42.590;23.364;2022-11-15T07:26:45;15.68;;;8.43;;
71806;SDS011;59655;42.590;23.364;2022-11-15T07:29:11;17.60;;;8.35;;
71806;SDS011;59655;42.590;23.364;2022-11-15T07:31:36;17.17;;;8.90;;
71806;SDS011;59655;42.590;23.364;2022-11-15T07:34:02;20.08;;;9.63;;
71806;SDS011;59655;42.590;23.364;2022-11-15T07:36:27;24.75;;;12.90;;
71806;SDS011;59655;42.590;23.364;2022-11-15T07:38:53;29.00;;;13.88;;
71806;SDS011;59655;42.590;23.364;2022-11-15T07:41:18;27.80;;;13.98;;
71806;SDS011;59655;42.590;23.364;2022-11-15T07:43:43;34.42;;;23.25;;
71806;SDS011;59655;42.590;23.364;2022-11-15T07:46:09;33.65;;;23.50;;
71806;SDS011;59655;42.590;23.364;2022-11-15T07:48:38;26.52;;;13.80;;
71806;SDS011;59655;42.590;23.364;2022-11-15T07:51:05;24.88;;;13.30;;
71806;SDS011;59655;42.590;23.364;2022-11-15T07:53:31;23.60;;;13.02;;
71806;SDS011;59655;42.590;23.364;2022-11-15T07:55:57;32.40;;;15.02;;
71806;SDS011;59655;42.590;23.364;2022-11-15T07:58:22;26.45;;;14.27;;
71806;SDS011;59655;42.590;23.364;2022-11-15T08:00:48;28.60;;;14.60;;
71806;SDS011;59655;42.590;23.364;2022-11-15T08:03:14;26.80;;;14.32;;
71806;SDS011;59655;42.590;23.364;2022-11-15T08:05:42;28.92;;;15.55;;
71806;SDS011;59655;42.590;23.364;2022-11-15T08:08:08;27.85;;;14.43;;
71806;SDS011;59655;42.590;23.364;2022-11-15T08:10:35;25.65;;;13.13;;
71806;SDS011;59655;42.590;23.364;2022-11-15T08:13:02;26.55;;;14.00;;
71806;SDS011;59655;42.590;23.364;2022-11-15T08:15:29;29.02;;;15.13;;
71806;SDS011;59655;42.590;23.364;2022-11-15T08:17:56;29.73;;;15.65;;
71806;SDS011;59655;42.590;23.364;2022-11-15T08:20:22;32.08;;;16.88;;
71806;SDS011;59655;42.590;23.364;2022-11-15T08:22:48;34.28;;;17.15;;
71806;SDS011;59655;42.590;23.364;2022-11-15T08:25:13;33.63;;;16.38;;
71806;SDS011;59655;42.590;23.364;2022-11-15T08:27:39;33.88;;;16.67;;
71806;SDS011;59655;42.590;23.364;2022-11-15T08:30:04;35.67;;;18.60;;
71806;SDS011;59655;42.590;23.364;2022-11-15T08:32:31;38.28;;;19.95;;
71806;SDS011;59655;42.590;23.364;2022-11-15T08:34:57;42.63;;;20.48;;
71806;SDS011;59655;42.590;23.364;2022-11-15T08:37:22;37.53;;;18.88;;
71806;SDS011;59655;42.590;23.364;2022-11-15T08:39:47;41.63;;;21.00;;
71806;SDS011;59655;42.590;23.364;2022-11-15T08:42:13;41.47;;;20.33;;
71806;SDS011;59655;42.590;23.364;2022-11-15T08:44:39;41.97;;;20.98;;
71806;SDS011;59655;42.590;23.364;2022-11-15T08:47:05;45.85;;;22.58;;
71806;SDS011;59655;42.590;23.364;2022-11-15T08:49:30;49.63;;;22.77;;
71806;SDS011;59655;42.590;23.364;2022-11-15T08:51:55;50.95;;;24.80;;
71806;SDS011;59655;42.590;23.364;2022-11-15T08:54:21;50.47;;;23.42;;
71806;SDS011;59655;42.590;23.364;2022-11-15T08:56:47;56.40;;;24.15;;
71806;SDS011;59655;42.590;23.364;2022-11-15T08:59:13;52.58;;;24.70;;
71806;SDS011;59655;42.590;23.364;2022-11-15T09:01:38;54.53;;;25.35;;
71806;SDS011;59655;42.590;23.364;2022-11-15T09:04:04;59.90;;;26.35;;
71806;SDS011;59655;42.590;23.364;2022-11-15T09:06:30;62.75;;;26.88;;
71806;SDS011;59655;42.590;23.364;2022-11-15T09:08:57;59.95;;;25.73;;
71806;SDS011;59655;42.590;23.364;2022-11-15T09:11:22;58.67;;;26.48;;
71806;SDS011;59655;42.590;23.364;2022-11-15T09:13:48;59.58;;;26.00;;
71806;SDS011;59655;42.590;23.364;2022-11-15T09:16:14;59.25;;;25.88;;
71806;SDS011;59655;42.590;23.364;2022-11-15T09:18:40;52.45;;;25.17;;
71806;SDS011;59655;42.590;23.364;2022-11-15T09:21:06;55.95;;;24.92;;
71806;SDS011;59655;42.590;23.364;2022-11-15T09:23:32;57.15;;;24.83;;
71806;SDS011;59655;42.590;23.364;2022-11-15T09:25:58;56.05;;;25.83;;
71806;SDS011;59655;42.590;23.364;2022-11-15T09:28:25;51.33;;;22.95;;
71806;SDS011;59655;42.590;23.364;2022-11-15T09:30:51;51.05;;;24.08;;
71806;SDS011;59655;42.590;23.364;2022-11-15T09:33:16;52.60;;;24.33;;
71806;SDS011;59655;42.590;23.364;2022-11-15T09:35:41;52.60;;;24.30;;
71806;SDS011;59655;42.590;23.364;2022-11-15T09:38:07;57.15;;;25.63;;
71806;SDS011;59655;42.590;23.364;2022-11-15T09:40:32;56.30;;;24.98;;
71806;SDS011;59655;42.590;23.364;2022-11-15T09:43:09;61.75;;;27.67;;
71806;SDS011;59655;42.590;23.364;2022-11-15T09:51:19;57.45;;;25.83;;
71806;SDS011;59655;42.590;23.364;2022-11-15T09:56:22;59.53;;;25.65;;
71806;SDS011;59655;42.590;23.364;2022-11-15T09:58:57;59.92;;;25.45;;
71806;SDS011;59655;42.590;23.364;2022-11-15T10:04:01;60.60;;;26.83;;
71806;SDS011;59655;42.590;23.364;2022-11-15T10:06:27;71.05;;;28.60;;
71806;SDS011;59655;42.590;23.364;2022-11-15T10:09:26;63.72;;;29.52;;
71806;SDS011;59655;42.590;23.364;2022-11-15T10:11:49;78.80;;;31.45;;
71806;SDS011;59655;42.590;23.364;2022-11-15T10:14:24;69.40;;;30.98;;
71806;SDS011;59655;42.590;23.364;2022-11-15T10:25:10;72.03;;;30.55;;
71806;SDS011;59655;42.590;23.364;2022-11-15T10:27:41;68.82;;;29.58;;
71806;SDS011;59655;42.590;23.364;2022-11-15T10:30:15;57.97;;;25.77;;
71806;SDS011;59655;42.590;23.364;2022-11-15T10:32:42;63.67;;;28.33;;
71806;SDS011;59655;42.590;23.364;2022-11-15T10:35:19;55.15;;;24.45;;
71806;SDS011;59655;42.590;23.364;2022-11-15T10:37:51;52.38;;;21.17;;
71806;SDS011;59655;42.590;23.364;2022-11-15T10:40:22;56.58;;;24.65;;
71806;SDS011;59655;42.590;23.364;2022-11-15T10:43:03;54.28;;;23.52;;
71806;SDS011;59655;42.590;23.364;2022-11-15T10:45:31;55.80;;;23.30;;
71806;SDS011;59655;42.590;23.364;2022-11-15T10:53:17;49.97;;;22.83;;
71806;SDS011;59655;42.590;23.364;2022-11-15T10:55:46;43.35;;;19.35;;
71806;SDS011;59655;42.590;23.364;2022-11-15T11:03:42;50.47;;;22.00;;
71806;SDS011;59655;42.590;23.364;2022-11-15T11:06:14;55.40;;;24.95;;
71806;SDS011;59655;42.590;23.364;2022-11-15T11:08:55;63.35;;;25.63;;
71806;SDS011;59655;42.590;23.364;2022-11-15T11:11:25;62.70;;;25.58;;
71806;SDS011;59655;42.590;23.364;2022-11-15T11:14:15;57.85;;;27.10;;
71806;SDS011;59655;42.590;23.364;2022-11-15T11:16:49;56.58;;;24.25;;
71806;SDS011;59655;42.590;23.364;2022-11-15T11:36:03;53.80;;;22.83;;
71806;SDS011;59655;42.590;23.364;2022-11-15T11:47:39;66.75;;;28.42;;
71806;SDS011;59655;42.590;23.364;2022-11-15T11:50:19;66.28;;;29.30;;
71806;SDS011;59655;42.590;23.364;2022-11-15T11:55:53;60.47;;;26.63;;
71806;SDS011;59655;42.590;23.364;2022-11-15T12:01:16;62.75;;;27.73;;
71806;SDS011;59655;42.590;23.364;2022-11-15T12:04:01;57.80;;;24.13;;
71806;SDS011;59655;42.590;23.364;2022-11-15T12:14:56;74.18;;;30.58;;
71806;SDS011;59655;42.590;23.364;2022-11-15T12:17:26;74.60;;;31.30;;
71806;SDS011;59655;42.590;23.364;2022-11-15T12:19:59;72.80;;;30.27;;
71806;SDS011;59655;42.590;23.364;2022-11-15T12:25:02;75.68;;;31.42;;
71806;SDS011;59655;42.590;23.364;2022-11-15T12:27:43;72.25;;;31.40;;
71806;SDS011;59655;42.590;23.364;2022-11-15T12:30:16;76.57;;;31.98;;
71806;SDS011;59655;42.590;23.364;2022-11-15T12:35:23;78.93;;;33.40;;
71806;SDS011;59655;42.590;23.364;2022-11-15T12:37:52;84.90;;;33.42;;
71806;SDS011;59655;42.590;23.364;2022-11-15T12:43:36;77.22;;;32.10;;
71806;SDS011;59655;42.590;23.364;2022-11-15T12:46:04;79.22;;;32.28;;
71806;SDS011;59655;42.590;23.364;2022-11-15T12:51:00;84.13;;;32.85;;
71806;SDS011;59655;42.590;23.364;2022-11-15T12:58:27;81.45;;;33.63;;
71806;SDS011;59655;42.590;23.364;2022-11-15T13:01:06;74.65;;;30.60;;
71806;SDS011;59655;42.590;23.364;2022-11-15T13:03:32;78.43;;;30.65;;
71806;SDS011;59655;42.590;23.364;2022-11-15T13:05:58;73.40;;;30.00;;
71806;SDS011;59655;42.590;23.364;2022-11-15T13:08:38;69.57;;;29.60;;
71806;SDS011;59655;42.590;23.364;2022-11-15T13:19:49;70.05;;;29.30;;
71806;SDS011;59655;42.590;23.364;2022-11-15T13:22:27;70.38;;;28.52;;
71806;SDS011;59655;42.590;23.364;2022-11-15T13:28:24;69.70;;;29.42;;
71806;SDS011;59655;42.590;23.364;2022-11-15T13:30:55;68.75;;;27.33;;
71806;SDS011;59655;42.590;23.364;2022-11-15T13:33:36;67.65;;;26.35;;
71806;SDS011;59655;42.590;23.364;2022-11-15T13:36:08;71.10;;;28.27;;
71806;SDS011;59655;42.590;23.364;2022-11-15T13:38:44;70.55;;;26.23;;
71806;SDS011;59655;42.590;23.364;2022-11-15T13:44:19;59.25;;;24.38;;
71806;SDS011;59655;42.590;23.364;2022-11-15T13:47:02;60.63;;;25.70;;
71806;SDS011;59655;42.590;23.364;2022-11-15T13:49:37;67.38;;;26.73;;
71806;SDS011;59655;42.590;23.364;2022-11-15T13:52:04;63.28;;;27.48;;
71806;SDS011;59655;42.590;23.364;2022-11-15T13:57:04;63.38;;;26.60;;
71806;SDS011;59655;42.590;23.364;2022-11-15T13:59:45;64.03;;;27.23;;
71806;SDS011;59655;42.590;23.364;2022-11-15T14:02:15;64.50;;;26.65;;
71806;SDS011;59655;42.590;23.364;2022-11-15T14:04:47;65.75;;;27.63;;
71806;SDS011;59655;42.590;23.364;2022-11-15T14:07:17;67.32;;;27.35;;
71806;SDS011;59655;42.590;23.364;2022-11-15T14:09:44;76.93;;;28.40;;
71806;SDS011;59655;42.590;23.364;2022-11-15T14:14:46;111.50;;;34.75;;
71806;SDS011;59655;42.590;23.364;2022-11-15T14:17:32;72.20;;;28.08;;
71806;SDS011;59655;42.590;23.364;2022-11-15T14:19:59;59.78;;;24.33;;
71806;SDS011;59655;42.590;23.364;2022-11-15T14:22:25;53.28;;;22.60;;
71806;SDS011;59655;42.590;23.364;2022-11-15T14:27:39;56.22;;;23.65;;
71806;SDS011;59655;42.590;23.364;2022-11-15T14:30:05;61.58;;;29.38;;
71806;SDS011;59655;42.590;23.364;2022-11-15T14:32:58;76.25;;;33.67;;
71806;SDS011;59655;42.590;23.364;2022-11-15T14:35:24;92.15;;;36.28;;
71806;SDS011;59655;42.590;23.364;2022-11-15T14:37:49;179.77;;;51.08;;
71806;SDS011;59655;42.590;23.364;2022-11-15T14:40:17;108.75;;;43.72;;
71806;SDS011;59655;42.590;23.364;2022-11-15T14:42:44;108.20;;;44.33;;
71806;SDS011;59655;42.590;23.364;2022-11-15T14:45:12;102.05;;;48.65;;
71806;SDS011;59655;42.590;23.364;2022-11-15T14:47:42;95.32;;;45.05;;
71806;SDS011;59655;42.590;23.364;2022-11-15T14:50:14;102.82;;;44.25;;
71806;SDS011;59655;42.590;23.364;2022-11-15T14:52:41;98.82;;;41.63;;
71806;SDS011;59655;42.590;23.364;2022-11-15T14:55:24;85.18;;;39.58;;
71806;SDS011;59655;42.590;23.364;2022-11-15T14:57:53;60.00;;;26.70;;
71806;SDS011;59655;42.590;23.364;2022-11-15T15:00:20;49.22;;;23.73;;
71806;SDS011;59655;42.590;23.364;2022-11-15T15:02:46;44.97;;;20.45;;
71806;SDS011;59655;42.590;23.364;2022-11-15T15:05:14;59.47;;;23.60;;
71806;SDS011;59655;42.590;23.364;2022-11-15T15:07:42;79.00;;;26.38;;
71806;SDS011;59655;42.590;23.364;2022-11-15T15:10:08;72.05;;;29.73;;
71806;SDS011;59655;42.590;23.364;2022-11-15T15:12:34;69.78;;;27.33;;
71806;SDS011;59655;42.590;23.364;2022-11-15T15:14:59;171.80;;;49.90;;
71806;SDS011;59655;42.590;23.364;2022-11-15T15:17:24;109.63;;;45.78;;
71806;SDS011;59655;42.590;23.364;2022-11-15T15:19:50;202.52;;;52.25;;
71806;SDS011;59655;42.590;23.364;2022-11-15T15:22:16;145.25;;;54.38;;
71806;SDS011;59655;42.590;23.364;2022-11-15T15:24:44;127.65;;;58.58;;
71806;SDS011;59655;42.590;23.364;2022-11-15T15:27:10;153.95;;;69.45;;
71806;SDS011;59655;42.590;23.364;2022-11-15T15:29:36;289.05;;;103.38;;
71806;SDS011;59655;42.590;23.364;2022-11-15T15:32:01;396.45;;;129.40;;
71806;SDS011;59655;42.590;23.364;2022-11-15T15:34:27;283.10;;;120.70;;
71806;SDS011;59655;42.590;23.364;2022-11-15T15:39:47;264.90;;;122.45;;
71806;SDS011;59655;42.590;23.364;2022-11-15T15:42:13;255.52;;;103.47;;
71806;SDS011;59655;42.590;23.364;2022-11-15T15:44:38;182.57;;;77.65;;
71806;SDS011;59655;42.590;23.364;2022-11-15T15:47:08;164.23;;;71.03;;
71806;SDS011;59655;42.590;23.364;2022-11-15T15:49:36;208.90;;;100.97;;
71806;SDS011;59655;42.590;23.364;2022-11-15T15:52:02;164.90;;;81.45;;
71806;SDS011;59655;42.590;23.364;2022-11-15T15:54:28;159.77;;;76.95;;
71806;SDS011;59655;42.590;23.364;2022-11-15T15:56:53;146.60;;;71.95;;
71806;SDS011;59655;42.590;23.364;2022-11-15T15:59:18;138.60;;;69.05;;
71806;SDS011;59655;42.590;23.364;2022-11-15T16:01:44;129.63;;;63.75;;
71806;SDS011;59655;42.590;23.364;2022-11-15T16:04:09;112.25;;;59.67;;
71806;SDS011;59655;42.590;23.364;2022-11-15T16:06:38;116.35;;;63.63;;
71806;SDS011;59655;42.590;23.364;2022-11-15T16:09:08;109.00;;;62.63;;
71806;SDS011;59655;42.590;23.364;2022-11-15T16:11:36;98.43;;;58.80;;
71806;SDS011;59655;42.590;23.364;2022-11-15T16:14:02;91.00;;;53.33;;
71806;SDS011;59655;42.590;23.364;2022-11-15T16:16:27;106.65;;;57.83;;
71806;SDS011;59655;42.590;23.364;2022-11-15T16:18:52;226.98;;;114.70;;
71806;SDS011;59655;42.590;23.364;2022-11-15T16:21:19;244.70;;;118.13;;
71806;SDS011;59655;42.590;23.364;2022-11-15T16:23:44;219.13;;;104.95;;
71806;SDS011;59655;42.590;23.364;2022-11-15T16:26:26;176.38;;;94.90;;
71806;SDS011;59655;42.590;23.364;2022-11-15T16:28:53;115.50;;;61.95;;
71806;SDS011;59655;42.590;23.364;2022-11-15T16:31:19;92.30;;;44.53;;
71806;SDS011;59655;42.590;23.364;2022-11-15T16:33:47;95.55;;;43.75;;
71806;SDS011;59655;42.590;23.364;2022-11-15T16:36:18;98.38;;;49.53;;